sensor_id;sensor_type;location;lat;lon;timestamp;pressure;altitude;pressure_sealevel;temperature;humidity
18813;BME280;9534;51.140;6.296;2024-02-26T00:02:47;67440.47;;;6.63;100.00
18813;BME280;9534;51.140;6.296;2024-02-26T00:06:51;67449.00;;;6.71;100.00
18813;BME280;9534;51.140;6.296;2024-02-26T00:10:56;67441.44;;;6.62;100.00
18813;BME280;9534;51.140;6.296;2024-02-26T00:14:59;67439.75;;;6.60;100.00
18813;BME280;9534;51.140;6.296;2024-02-26T00:19:03;67431.81;;;6.53;100.00
18813;BME280;9534;51.140;6.296;2024-02-26T00:23:08;67436.19;;;6.55;100.00
18813;BME280;9534;51.140;6.296;2024-02-26T00:27:11;67423.41;;;6.48;100.00
18813;BME280;9534;51.140;6.296;2024-02-26T00:31:14;67412.06;;;6.38;100.00
18813;BME280;9534;51.140;6.296;2024-02-26T00:35:17;67415.16;;;6.36;100.00
18813;BME280;9534;51.140;6.296;2024-02-26T00:39:23;67415.16;;;6.36;100.00
18813;BME280;9534;51.140;6.296;2024-02-26T00:43:26;67409.63;;;6.34;100.00
18813;BME280;9534;51.140;6.296;2024-02-26T00:47:29;67413.03;;;6.37;100.00
18813;BME280;9534;51.140;6.296;2024-02-26T00:51:32;67418.28;;;6.34;100.00
18813;BME280;9534;51.140;6.296;2024-02-26T00:55:37;67409.47;;;6.31;100.00
18813;BME280;9534;51.140;6.296;2024-02-26T00:59:40;67405.94;;;6.26;100.00
18813;BME280;9534;51.140;6.296;2024-02-26T01:03:43;67391.44;;;6.18;100.00
18813;BME280;9534;51.140;6.296;2024-02-26T01:07:46;67390.88;;;6.17;100.00
18813;BME280;9534;51.140;6.296;2024-02-26T01:11:51;67384.47;;;6.10;100.00
18813;BME280;9534;51.140;6.296;2024-02-26T01:15:54;67382.19;;;6.08;100.00
18813;BME280;9534;51.140;6.296;2024-02-26T01:19:57;67371.72;;;6.03;100.00
18813;BME280;9534;51.140;6.296;2024-02-26T01:24:00;67368.56;;;5.96;100.00
18813;BME280;9534;51.140;6.296;2024-02-26T01:28:04;67360.34;;;5.93;100.00
18813;BME280;9534;51.140;6.296;2024-02-26T01:32:07;67363.31;;;5.89;100.00
18813;BME280;9534;51.140;6.296;2024-02-26T01:36:10;67355.63;;;5.87;100.00
18813;BME280;9534;51.140;6.296;2024-02-26T01:40:13;67358.31;;;5.87;100.00
18813;BME280;9534;51.140;6.296;2024-02-26T01:44:21;67356.06;;;5.85;100.00
18813;BME280;9534;51.140;6.296;2024-02-26T01:48:24;67360.03;;;5.88;100.00
18813;BME280;9534;51.140;6.296;2024-02-26T01:52:27;67356.78;;;5.88;100.00
18813;BME280;9534;51.140;6.296;2024-02-26T01:56:30;67360.03;;;5.88;100.00
18813;BME280;9534;51.140;6.296;2024-02-26T02:00:35;67357.94;;;5.89;100.00
18813;BME280;9534;51.140;6.296;2024-02-26T02:04:40;67361.56;;;5.87;100.00
18813;BME280;9534;51.140;6.296;2024-02-26T02:08:44;67363.88;;;5.89;100.00
18813;BME280;9534;51.140;6.296;2024-02-26T02:12:53;67362.88;;;5.91;100.00
18813;BME280;9534;51.140;6.296;2024-02-26T02:16:58;67369.28;;;5.99;100.00
18813;BME280;9534;51.140;6.296;2024-02-26T02:21:03;67363.59;;;5.94;100.00
18813;BME280;9534;51.140;6.296;2024-02-26T02:25:08;67372.81;;;5.95;100.00
18813;BME280;9534;51.140;6.296;2024-02-26T02:29:11;67373.53;;;5.98;100.00
18813;BME280;9534;51.140;6.296;2024-02-26T02:33:14;67367.03;;;5.97;100.00
18813;BME280;9534;51.140;6.296;2024-02-26T02:37:20;67367.31;;;6.02;100.00
18813;BME280;9534;51.140;6.296;2024-02-26T02:41:22;67378.81;;;6.05;100.00
18813;BME280;9534;51.140;6.296;2024-02-26T02:45:25;67377.81;;;6.06;100.00
18813;BME280;9534;51.140;6.296;2024-02-26T02:49:28;67375.94;;;6.02;100.00
18813;BME280;9534;51.140;6.296;2024-02-26T02:53:33;67371.16;;;6.03;100.00
18813;BME280;9534;51.140;6.296;2024-02-26T02:57:36;67370.00;;;6.02;100.00
18813;BME280;9534;51.140;6.296;2024-02-26T03:01:43;67365.47;;;5.98;100.00
18813;BME280;9534;51.140;6.296;2024-02-26T03:05:46;67367.56;;;5.97;100.00
18813;BME280;9534;51.140;6.296;2024-02-26T03:09:50;67365.16;;;5.93;100.00
18813;BME280;9534;51.140;6.296;2024-02-26T03:13:54;67356.38;;;5.90;100.00
18813;BME280;9534;51.140;6.296;2024-02-26T03:17:57;67357.19;;;5.86;100.00
18813;BME280;9534;51.140;6.296;2024-02-26T03:22:00;67358.03;;;5.82;100.00
18813;BME280;9534;51.140;6.296;2024-02-26T03:26:05;67353.19;;;5.82;100.00
18813;BME280;9534;51.140;6.296;2024-02-26T03:30:08;67345.41;;;5.78;100.00
18813;BME280;9534;51.140;6.296;2024-02-26T03:34:11;67339.88;;;5.75;100.00
18813;BME280;9534;51.140;6.296;2024-02-26T03:38:16;67340.88;;;5.74;100.00
18813;BME280;9534;51.140;6.296;2024-02-26T03:42:20;67344.69;;;5.75;100.00
18813;BME280;9534;51.140;6.296;2024-02-26T03:46:24;67346.97;;;5.77;100.00
18813;BME280;9534;51.140;6.296;2024-02-26T03:50:27;67348.50;;;5.76;100.00
18813;BME280;9534;51.140;6.296;2024-02-26T03:54:30;67353.06;;;5.80;100.00
18813;BME280;9534;51.140;6.296;2024-02-26T03:58:34;67353.19;;;5.82;100.00
18813;BME280;9534;51.140;6.296;2024-02-26T04:02:37;67344.81;;;5.77;100.00
18813;BME280;9534;51.140;6.296;2024-02-26T04:06:40;67345.81;;;5.76;100.00
18813;BME280;9534;51.140;6.296;2024-02-26T04:10:46;67341.41;;;5.74;100.00
18813;BME280;9534;51.140;6.296;2024-02-26T04:14:51;67342.84;;;5.71;100.00
18813;BME280;9534;51.140;6.296;2024-02-26T04:18:54;67340.69;;;5.71;100.00
18813;BME280;9534;51.140;6.296;2024-02-26T04:22:57;67340.13;;;5.71;100.00
18813;BME280;9534;51.140;6.296;2024-02-26T04:27:00;67336.16;;;5.67;100.00
18813;BME280;9534;51.140;6.296;2024-02-26T04:31:04;67331.06;;;5.63;100.00
18813;BME280;9534;51.140;6.296;2024-02-26T04:35:08;67324.41;;;5.59;100.00
18813;BME280;9534;51.140;6.296;2024-02-26T04:39:12;67314.19;;;5.50;100.00
18813;BME280;9534;51.140;6.296;2024-02-26T04:43:16;67309.63;;;5.46;100.00
18813;BME280;9534;51.140;6.296;2024-02-26T04:47:22;67310.59;;;5.45;100.00
18813;BME280;9534;51.140;6.296;2024-02-26T04:51:25;67301.09;;;5.39;100.00
18813;BME280;9534;51.140;6.296;2024-02-26T04:55:28;67304.91;;;5.40;100.00
18813;BME280;9534;51.140;6.296;2024-02-26T04:59:34;67305.50;;;5.40;100.00
18813;BME280;9534;51.140;6.296;2024-02-26T05:03:38;67311.03;;;5.43;100.00
18813;BME280;9534;51.140;6.296;2024-02-26T05:07:42;67311.03;;;5.43;100.00
18813;BME280;9534;51.140;6.296;2024-02-26T05:11:46;67309.06;;;5.46;100.00
18813;BME280;9534;51.140;6.296;2024-02-26T05:15:49;67300.53;;;5.38;100.00
18813;BME280;9534;51.140;6.296;2024-02-26T05:19:55;67297.56;;;5.33;100.00
18813;BME280;9534;51.140;6.296;2024-02-26T05:23:58;67286.50;;;5.28;100.00
18813;BME280;9534;51.140;6.296;2024-02-26T05:28:01;67287.06;;;5.29;100.00
18813;BME280;9534;51.140;6.296;2024-02-26T05:32:05;67294.16;;;5.30;100.00
18813;BME280;9534;51.140;6.296;2024-02-26T05:36:09;67291.88;;;5.28;100.00
18813;BME280;9534;51.140;6.296;2024-02-26T05:40:12;67290.16;;;5.27;100.00
18813;BME280;9534;51.140;6.296;2024-02-26T05:44:15;67294.69;;;5.31;100.00
18813;BME280;9534;51.140;6.296;2024-02-26T05:48:18;67294.16;;;5.30;100.00
18813;BME280;9534;51.140;6.296;2024-02-26T05:52:23;67287.47;;;5.27;100.00
18813;BME280;9534;51.140;6.296;2024-02-26T05:56:27;67289.19;;;5.28;100.00
18813;BME280;9534;51.140;6.296;2024-02-26T06:00:30;67294.16;;;5.30;100.00
18813;BME280;9534;51.140;6.296;2024-02-26T06:04:33;67295.28;;;5.31;100.00
18813;BME280;9534;51.140;6.296;2024-02-26T06:08:38;67293.72;;;5.32;100.00
18813;BME280;9534;51.140;6.296;2024-02-26T06:12:41;67294.16;;;5.30;100.00
18813;BME280;9534;51.140;6.296;2024-02-26T06:16:44;67289.75;;;5.29;100.00
18813;BME280;9534;51.140;6.296;2024-02-26T06:20:47;67289.59;;;5.26;100.00
18813;BME280;9534;51.140;6.296;2024-02-26T06:24:51;67284.06;;;5.24;100.00
18813;BME280;9534;51.140;6.296;2024-02-26T06:28:54;67283.09;;;5.25;100.00
18813;BME280;9534;51.140;6.296;2024-02-26T06:32:57;67282.22;;;5.20;100.00
18813;BME280;9534;51.140;6.296;2024-02-26T06:37:00;67278.25;;;5.16;100.00
18813;BME280;9534;51.140;6.296;2024-02-26T06:41:06;67277.28;;;5.18;100.00
18813;BME280;9534;51.140;6.296;2024-02-26T06:45:09;67271.19;;;5.15;100.00
18813;BME280;9534;51.140;6.296;2024-02-26T06:49:12;67282.66;;;5.18;100.00
18813;BME280;9534;51.140;6.296;2024-02-26T06:53:15;67264.66;;;5.14;100.00
18813;BME280;9534;51.140;6.296;2024-02-26T06:57:20;67275.41;;;5.14;100.00
18813;BME280;9534;51.140;6.296;2024-02-26T07:01:23;67272.56;;;5.11;100.00
18813;BME280;9534;51.140;6.296;2024-02-26T07:05:26;67268.03;;;5.07;100.00
18813;BME280;9534;51.140;6.296;2024-02-26T07:09:29;67269.00;;;5.06;100.00
18813;BME280;9534;51.140;6.296;2024-02-26T07:13:33;67272.41;;;5.09;100.00
18813;BME280;9534;51.140;6.296;2024-02-26T07:17:36;67277.38;;;5.11;100.00
18813;BME280;9534;51.140;6.296;2024-02-26T07:21:43;67274.84;;;5.13;100.00
18813;BME280;9534;51.140;6.296;2024-02-26T07:25:46;67275.09;;;5.09;100.00
18813;BME280;9534;51.140;6.296;2024-02-26T07:29:53;67274.28;;;5.13;100.00
18813;BME280;9534;51.140;6.296;2024-02-26T07:33:55;67276.97;;;5.13;100.00
18813;BME280;9534;51.140;6.296;2024-02-26T07:37:59;67285.34;;;5.18;100.00
18813;BME280;9534;51.140;6.296;2024-02-26T07:42:02;67281.09;;;5.19;100.00
18813;BME280;9534;51.140;6.296;2024-02-26T07:46:06;67280.25;;;5.23;100.00
18813;BME280;9534;51.140;6.296;2024-02-26T07:50:10;67287.06;;;5.29;100.00
18813;BME280;9534;51.140;6.296;2024-02-26T07:54:14;67285.91;;;5.28;100.00
18813;BME280;9534;51.140;6.296;2024-02-26T07:58:17;67303.47;;;5.34;100.00
18813;BME280;9534;51.140;6.296;2024-02-26T08:02:22;67298.69;;;5.34;100.00
18813;BME280;9534;51.140;6.296;2024-02-26T08:06:25;67302.09;;;5.37;100.00
18813;BME280;9534;51.140;6.296;2024-02-26T08:10:28;67306.63;;;5.41;100.00
18813;BME280;9534;51.140;6.296;2024-02-26T08:14:34;67308.34;;;5.43;100.00
18813;BME280;9534;51.140;6.296;2024-02-26T08:18:38;67310.03;;;5.44;100.00
18813;BME280;9534;51.140;6.296;2024-02-26T08:22:42;67312.47;;;5.49;100.00
18813;BME280;9534;51.140;6.296;2024-02-26T08:26:44;67315.56;;;5.47;100.00
18813;BME280;9534;51.140;6.296;2024-02-26T08:30:48;67315.56;;;5.47;100.00
18813;BME280;9534;51.140;6.296;2024-02-26T08:34:52;67309.22;;;5.48;100.00
18813;BME280;9534;51.140;6.296;2024-02-26T08:38:55;67318.25;;;5.47;100.00
18813;BME280;9534;51.140;6.296;2024-02-26T08:42:58;67317.84;;;5.49;100.00
18813;BME280;9534;51.140;6.296;2024-02-26T08:47:01;67314.59;;;5.48;100.00
18813;BME280;9534;51.140;6.296;2024-02-26T08:51:06;67320.69;;;5.51;100.00
18813;BME280;9534;51.140;6.296;2024-02-26T08:55:09;67321.66;;;5.50;100.00
18813;BME280;9534;51.140;6.296;2024-02-26T08:59:13;67317.41;;;5.51;100.00
18813;BME280;9534;51.140;6.296;2024-02-26T09:03:18;67323.09;;;5.56;100.00
18813;BME280;9534;51.140;6.296;2024-02-26T09:07:22;67316.75;;;5.57;100.00
18813;BME280;9534;51.140;6.296;2024-02-26T09:11:25;67329.50;;;5.64;100.00
18813;BME280;9534;51.140;6.296;2024-02-26T09:15:28;67329.91;;;5.62;100.00
18813;BME280;9534;51.140;6.296;2024-02-26T09:19:31;67323.25;;;5.58;100.00
18813;BME280;9534;51.140;6.296;2024-02-26T09:23:36;67330.06;;;5.64;100.00
18813;BME280;9534;51.140;6.296;2024-02-26T09:27:39;67329.50;;;5.64;100.00
18813;BME280;9534;51.140;6.296;2024-02-26T09:31:44;67337.88;;;5.69;100.00
18813;BME280;9534;51.140;6.296;2024-02-26T09:35:49;67330.63;;;5.65;100.00
18813;BME280;9534;51.140;6.296;2024-02-26T09:39:54;67331.19;;;5.65;100.00
18813;BME280;9534;51.140;6.296;2024-02-26T09:43:57;67333.31;;;5.65;100.00
18813;BME280;9534;51.140;6.296;2024-02-26T09:48:02;67338.28;;;5.67;100.00
18813;BME280;9534;51.140;6.296;2024-02-26T09:52:06;67341.69;;;5.70;100.00
18813;BME280;9534;51.140;6.296;2024-02-26T09:56:12;67337.28;;;5.68;100.00
18813;BME280;9534;51.140;6.296;2024-02-26T10:00:18;67334.75;;;5.71;100.00
18813;BME280;9534;51.140;6.296;2024-02-26T10:04:22;67347.94;;;5.75;100.00
18813;BME280;9534;51.140;6.296;2024-02-26T10:08:25;67350.38;;;5.80;100.00
18813;BME280;9534;51.140;6.296;2024-02-26T10:12:31;67345.81;;;5.76;100.00
18813;BME280;9534;51.140;6.296;2024-02-26T10:16:34;67364.03;;;5.92;100.00
18813;BME280;9534;51.140;6.296;2024-02-26T10:20:38;67358.31;;;5.87;100.00
18813;BME280;9534;51.140;6.296;2024-02-26T10:24:42;67359.47;;;5.88;100.00
18813;BME280;9534;51.140;6.296;2024-02-26T10:28:47;67361.47;;;5.94;100.00
18813;BME280;9534;51.140;6.296;2024-02-26T10:32:55;67364.03;;;5.92;100.00
18813;BME280;9534;51.140;6.296;2024-02-26T10:37:00;67368.00;;;5.95;100.00
18813;BME280;9534;51.140;6.296;2024-02-26T10:41:04;67373.69;;;6.00;100.00
18813;BME280;9534;51.140;6.296;2024-02-26T10:45:11;67359.78;;;5.93;100.00
18813;BME280;9534;51.140;6.296;2024-02-26T10:49:15;67363.31;;;5.89;100.00
18813;BME280;9534;51.140;6.296;2024-02-26T10:53:21;67358.06;;;5.91;100.00
18813;BME280;9534;51.140;6.296;2024-02-26T10:57:24;67362.88;;;5.91;100.00
18813;BME280;9534;51.140;6.296;2024-02-26T11:01:28;67368.00;;;5.95;100.00
18813;BME280;9534;51.140;6.296;2024-02-26T11:05:34;67366.59;;;5.99;100.00
18813;BME280;9534;51.140;6.296;2024-02-26T11:09:40;67378.94;;;6.07;100.00
18813;BME280;9534;51.140;6.296;2024-02-26T11:13:46;67379.91;;;6.06;100.00
18813;BME280;9534;51.140;6.296;2024-02-26T11:17:53;67369.84;;;5.99;100.00
18813;BME280;9534;51.140;6.296;2024-02-26T11:21:58;67382.06;;;6.05;100.00
18813;BME280;9534;51.140;6.296;2024-02-26T11:26:16;67384.22;;;6.14;100.00
18813;BME280;9534;51.140;6.296;2024-02-26T11:30:20;67388.19;;;6.17;100.00
18813;BME280;9534;51.140;6.296;2024-02-26T11:34:27;67392.72;;;6.21;100.00
18813;BME280;9534;51.140;6.296;2024-02-26T11:38:31;67390.63;;;6.22;100.00
18813;BME280;9534;51.140;6.296;2024-02-26T11:42:35;67402.94;;;6.30;100.00
18813;BME280;9534;51.140;6.296;2024-02-26T11:46:46;67416.28;;;6.37;100.00
18813;BME280;9534;51.140;6.296;2024-02-26T11:50:52;67425.69;;;6.50;100.00
18813;BME280;9534;51.140;6.296;2024-02-26T11:54:56;67434.78;;;6.58;100.00
18813;BME280;9534;51.140;6.296;2024-02-26T11:59:00;67429.94;;;6.49;100.00
18813;BME280;9534;51.140;6.296;2024-02-26T12:03:04;67426.53;;;6.46;100.00
18813;BME280;9534;51.140;6.296;2024-02-26T12:07:11;67427.38;;;6.52;100.00
18813;BME280;9534;51.140;6.296;2024-02-26T12:11:15;67421.72;;;6.47;100.00
18813;BME280;9534;51.140;6.296;2024-02-26T12:15:18;67424.25;;;6.44;100.00
18813;BME280;9534;51.140;6.296;2024-02-26T12:19:23;67417.72;;;6.43;100.00
18813;BME280;9534;51.140;6.296;2024-02-26T12:23:28;67404.50;;;6.29;100.00
18813;BME280;9534;51.140;6.296;2024-02-26T12:27:31;67414.91;;;6.41;100.00
18813;BME280;9534;51.140;6.296;2024-02-26T12:31:35;67416.47;;;6.40;100.00
18813;BME280;9534;51.140;6.296;2024-02-26T12:35:40;67408.91;;;6.31;100.00
18813;BME280;9534;51.140;6.296;2024-02-26T12:39:44;67415.47;;;6.41;100.00
18813;BME280;9534;51.140;6.296;2024-02-26T12:43:47;67410.91;;;6.37;100.00
18813;BME280;9534;51.140;6.296;2024-02-26T12:47:51;67409.22;;;6.36;100.00
18813;BME280;9534;51.140;6.296;2024-02-26T12:51:54;67426.22;;;6.41;100.00
18813;BME280;9534;51.140;6.296;2024-02-26T12:56:05;67420.84;;;6.41;100.00
18813;BME280;9534;51.140;6.296;2024-02-26T13:00:11;67419.03;;;6.47;100.00
18813;BME280;9534;51.140;6.296;2024-02-26T13:04:16;67418.72;;;6.42;100.00
18813;BME280;9534;51.140;6.296;2024-02-26T13:08:20;67420.00;;;6.45;100.00
18813;BME280;9534;51.140;6.296;2024-02-26T13:12:24;67430.50;;;6.50;100.00
18813;BME280;9534;51.140;6.296;2024-02-26T13:16:28;67439.34;;;6.62;100.00
18813;BME280;9534;51.140;6.296;2024-02-26T13:20:31;67446.16;;;6.68;100.00
18813;BME280;9534;51.140;6.296;2024-02-26T13:24:35;67457.25;;;6.73;100.00
18813;BME280;9534;51.140;6.296;2024-02-26T13:28:40;67453.00;;;6.74;100.00
18813;BME280;9534;51.140;6.296;2024-02-26T13:32:44;67444.44;;;6.67;100.00
18813;BME280;9534;51.140;6.296;2024-02-26T13:36:49;67451.56;;;6.68;100.00
18813;BME280;9534;51.140;6.296;2024-02-26T13:40:52;67459.41;;;6.82;100.00
18813;BME280;9534;51.140;6.296;2024-02-26T13:44:57;67457.38;;;6.76;100.00
18813;BME280;9534;51.140;6.296;2024-02-26T13:49:00;67447.56;;;6.65;100.00
18813;BME280;9534;51.140;6.296;2024-02-26T13:53:03;67448.69;;;6.66;100.00
18813;BME280;9534;51.140;6.296;2024-02-26T13:57:06;67435.75;;;6.57;100.00
18813;BME280;9534;51.140;6.296;2024-02-26T14:01:11;67439.75;;;6.60;100.00
18813;BME280;9534;51.140;6.296;2024-02-26T14:05:15;67441.63;;;6.64;100.00
18813;BME280;9534;51.140;6.296;2024-02-26T14:09:18;67440.19;;;6.58;100.00
18813;BME280;9534;51.140;6.296;2024-02-26T14:13:22;67429.53;;;6.51;100.00
18813;BME280;9534;51.140;6.296;2024-02-26T14:17:26;67430.66;;;6.52;100.00
18813;BME280;9534;51.140;6.296;2024-02-26T14:21:29;67425.41;;;6.45;100.00
18813;BME280;9534;51.140;6.296;2024-02-26T14:25:32;67440.47;;;6.63;100.00
18813;BME280;9534;51.140;6.296;2024-02-26T14:29:35;67477.69;;;6.91;100.00
18813;BME280;9534;51.140;6.296;2024-02-26T14:33:40;67485.66;;;6.98;100.00
18813;BME280;9534;51.140;6.296;2024-02-26T14:37:43;67462.50;;;6.80;100.00
18813;BME280;9534;51.140;6.296;2024-02-26T14:41:49;67479.97;;;6.93;100.00
18813;BME280;9534;51.140;6.296;2024-02-26T14:45:54;67467.78;;;6.87;100.00
18813;BME280;9534;51.140;6.296;2024-02-26T14:49:58;67467.06;;;6.84;100.00
18813;BME280;9534;51.140;6.296;2024-02-26T14:54:01;67458.38;;;6.74;100.00
18813;BME280;9534;51.140;6.296;2024-02-26T14:58:04;67452.41;;;6.74;100.00
18813;BME280;9534;51.140;6.296;2024-02-26T15:02:07;67447.84;;;6.70;100.00
18813;BME280;9534;51.140;6.296;2024-02-26T15:06:13;67472.75;;;6.89;100.00
18813;BME280;9534;51.140;6.296;2024-02-26T15:10:16;67472.03;;;6.86;100.00
18813;BME280;9534;51.140;6.296;2024-02-26T15:14:21;67451.84;;;6.73;100.00
18813;BME280;9534;51.140;6.296;2024-02-26T15:18:23;67457.38;;;6.76;100.00
18813;BME280;9534;51.140;6.296;2024-02-26T15:22:28;67451.56;;;6.68;100.00
18813;BME280;9534;51.140;6.296;2024-02-26T15:26:31;67448.44;;;6.70;100.00
18813;BME280;9534;51.140;6.296;2024-02-26T15:30:34;67447.84;;;6.70;100.00
18813;BME280;9534;51.140;6.296;2024-02-26T15:34:38;67438.19;;;6.61;100.00
18813;BME280;9534;51.140;6.296;2024-02-26T15:38:42;67435.94;;;6.59;100.00
18813;BME280;9534;51.140;6.296;2024-02-26T15:42:45;67431.38;;;6.55;100.00
18813;BME280;9534;51.140;6.296;2024-02-26T15:46:48;67423.84;;;6.46;100.00
18813;BME280;9534;51.140;6.296;2024-02-26T15:50:51;67417.19;;;6.43;100.00
18813;BME280;9534;51.140;6.296;2024-02-26T15:54:56;67417.44;;;6.38;100.00
18813;BME280;9534;51.140;6.296;2024-02-26T15:58:58;67404.81;;;6.34;100.00
18813;BME280;9534;51.140;6.296;2024-02-26T16:03:01;67414.44;;;6.33;100.00
18813;BME280;9534;51.140;6.296;2024-02-26T16:07:05;67405.22;;;6.32;100.00
18813;BME280;9534;51.140;6.296;2024-02-26T16:11:16;67408.34;;;6.30;100.00
18813;BME280;9534;51.140;6.296;2024-02-26T16:15:20;67398.41;;;6.26;100.00
18813;BME280;9534;51.140;6.296;2024-02-26T16:19:23;67400.97;;;6.24;100.00
18813;BME280;9534;51.140;6.296;2024-02-26T16:23:27;67403.78;;;6.26;100.00
18813;BME280;9534;51.140;6.296;2024-02-26T16:27:32;67397.69;;;6.23;100.00
18813;BME280;9534;51.140;6.296;2024-02-26T16:31:35;67402.66;;;6.25;100.00
18813;BME280;9534;51.140;6.296;2024-02-26T16:35:38;67396.13;;;6.24;100.00
18813;BME280;9534;51.140;6.296;2024-02-26T16:39:41;67399.25;;;6.22;100.00
18813;BME280;9534;51.140;6.296;2024-02-26T16:43:46;67395.41;;;6.21;100.00
18813;BME280;9534;51.140;6.296;2024-02-26T16:47:49;67395.00;;;6.23;100.00
18813;BME280;9534;51.140;6.296;2024-02-26T16:51:52;67393.84;;;6.22;100.00
18813;BME280;9534;51.140;6.296;2024-02-26T16:55:55;67396.97;;;6.20;100.00
18813;BME280;9534;51.140;6.296;2024-02-26T17:00:03;67394.13;;;6.18;100.00
18813;BME280;9534;51.140;6.296;2024-02-26T17:04:07;67382.25;;;6.17;100.00
18813;BME280;9534;51.140;6.296;2024-02-26T17:08:10;67393.56;;;6.17;100.00
18813;BME280;9534;51.140;6.296;2024-02-26T17:12:13;67389.00;;;6.13;100.00
18813;BME280;9534;51.140;6.296;2024-02-26T17:16:21;67383.63;;;6.13;100.00
18813;BME280;9534;51.140;6.296;2024-02-26T17:20:24;67384.47;;;6.10;100.00
18813;BME280;9534;51.140;6.296;2024-02-26T17:24:27;67383.50;;;6.11;100.00
18813;BME280;9534;51.140;6.296;2024-02-26T17:28:30;67384.47;;;6.10;100.00
18813;BME280;9534;51.140;6.296;2024-02-26T17:32:35;67383.31;;;6.09;100.00
18813;BME280;9534;51.140;6.296;2024-02-26T17:36:38;67378.94;;;6.07;100.00
18813;BME280;9534;51.140;6.296;2024-02-26T17:40:41;67387.16;;;6.10;100.00
18813;BME280;9534;51.140;6.296;2024-02-26T17:44:44;67377.22;;;6.06;100.00
18813;BME280;9534;51.140;6.296;2024-02-26T17:48:48;67387.88;;;6.13;100.00
18813;BME280;9534;51.140;6.296;2024-02-26T17:52:51;67379.09;;;6.10;100.00
18813;BME280;9534;51.140;6.296;2024-02-26T17:56:54;67382.34;;;6.10;100.00
18813;BME280;9534;51.140;6.296;2024-02-26T18:00:59;67384.47;;;6.10;100.00
18813;BME280;9534;51.140;6.296;2024-02-26T18:05:04;67381.78;;;6.10;100.00
18813;BME280;9534;51.140;6.296;2024-02-26T18:09:07;67379.91;;;6.06;100.00
18813;BME280;9534;51.140;6.296;2024-02-26T18:13:10;67376.81;;;6.08;100.00
18813;BME280;9534;51.140;6.296;2024-02-26T18:17:13;67379.91;;;6.06;100.00
18813;BME280;9534;51.140;6.296;2024-02-26T18:21:18;67381.06;;;6.07;100.00
18813;BME280;9534;51.140;6.296;2024-02-26T18:25:23;67382.78;;;6.08;100.00
18813;BME280;9534;51.140;6.296;2024-02-26T18:29:28;67378.38;;;6.07;100.00
18813;BME280;9534;51.140;6.296;2024-02-26T18:33:31;67379.66;;;6.10;100.00
18813;BME280;9534;51.140;6.296;2024-02-26T18:37:36;67386.03;;;6.09;100.00
18813;BME280;9534;51.140;6.296;2024-02-26T18:41:39;67386.03;;;6.09;100.00
18813;BME280;9534;51.140;6.296;2024-02-26T18:45:42;67373.41;;;6.05;100.00
18813;BME280;9534;51.140;6.296;2024-02-26T18:49:45;67374.97;;;6.04;100.00
18813;BME280;9534;51.140;6.296;2024-02-26T18:53:49;67366.91;;;6.04;100.00
18813;BME280;9534;51.140;6.296;2024-02-26T18:57:52;67381.94;;;6.12;100.00
18813;BME280;9534;51.140;6.296;2024-02-26T19:01:56;67379.91;;;6.06;100.00
18813;BME280;9534;51.140;6.296;2024-02-26T19:05:58;67379.91;;;6.06;100.00
18813;BME280;9534;51.140;6.296;2024-02-26T19:10:06;67383.31;;;6.09;100.00
18813;BME280;9534;51.140;6.296;2024-02-26T19:14:09;67380.50;;;6.06;100.00
18813;BME280;9534;51.140;6.296;2024-02-26T19:18:12;67372.28;;;6.04;100.00
18813;BME280;9534;51.140;6.296;2024-02-26T19:22:19;67368.28;;;6.00;100.00
18813;BME280;9534;51.140;6.296;2024-02-26T19:26:24;67369.00;;;6.03;100.00
18813;BME280;9534;51.140;6.296;2024-02-26T19:30:27;67373.13;;;6.00;100.00
18813;BME280;9534;51.140;6.296;2024-02-26T19:34:30;67375.41;;;6.02;100.00
18813;BME280;9534;51.140;6.296;2024-02-26T19:38:33;67370.00;;;6.02;100.00
18813;BME280;9534;51.140;6.296;2024-02-26T19:42:38;67373.13;;;6.00;100.00
18813;BME280;9534;51.140;6.296;2024-02-26T19:46:41;67373.13;;;6.00;100.00
18813;BME280;9534;51.140;6.296;2024-02-26T19:50:44;67369.28;;;5.99;100.00
18813;BME280;9534;51.140;6.296;2024-02-26T19:54:48;67376.53;;;6.03;100.00
18813;BME280;9534;51.140;6.296;2024-02-26T19:58:52;67373.13;;;6.00;100.00
18813;BME280;9534;51.140;6.296;2024-02-26T20:02:56;67365.06;;;6.00;100.00
18813;BME280;9534;51.140;6.296;2024-02-26T20:07:00;67373.84;;;6.03;100.00
18813;BME280;9534;51.140;6.296;2024-02-26T20:11:03;67369.28;;;5.99;100.00
18813;BME280;9534;51.140;6.296;2024-02-26T20:15:08;67372.84;;;6.04;100.00
18813;BME280;9534;51.140;6.296;2024-02-26T20:19:12;67374.25;;;6.01;100.00
18813;BME280;9534;51.140;6.296;2024-02-26T20:23:15;67368.88;;;6.01;100.00
18813;BME280;9534;51.140;6.296;2024-02-26T20:27:18;67370.56;;;6.02;100.00
18813;BME280;9534;51.140;6.296;2024-02-26T20:31:23;67372.69;;;6.02;100.00
18813;BME280;9534;51.140;6.296;2024-02-26T20:35:26;67378.81;;;6.05;100.00
18813;BME280;9534;51.140;6.296;2024-02-26T20:39:29;67375.41;;;6.02;100.00
18813;BME280;9534;51.140;6.296;2024-02-26T20:43:32;67372.28;;;6.04;100.00
18813;BME280;9534;51.140;6.296;2024-02-26T20:47:38;67374.41;;;6.03;100.00
18813;BME280;9534;51.140;6.296;2024-02-26T20:51:41;67375.13;;;6.06;100.00
18813;BME280;9534;51.140;6.296;2024-02-26T20:55:45;67371.16;;;6.03;100.00
18813;BME280;9534;51.140;6.296;2024-02-26T20:59:50;67371.56;;;6.01;100.00
18813;BME280;9534;51.140;6.296;2024-02-26T21:03:54;67375.41;;;6.02;100.00
18813;BME280;9534;51.140;6.296;2024-02-26T21:07:58;67375.41;;;6.02;100.00
18813;BME280;9534;51.140;6.296;2024-02-26T21:12:01;67375.81;;;6.00;100.00
18813;BME280;9534;51.140;6.296;2024-02-26T21:16:04;67368.88;;;6.01;100.00
18813;BME280;9534;51.140;6.296;2024-02-26T21:20:09;67366.59;;;5.99;100.00
18813;BME280;9534;51.140;6.296;2024-02-26T21:24:15;67370.84;;;5.98;100.00
18813;BME280;9534;51.140;6.296;2024-02-26T21:28:18;67366.59;;;5.99;100.00
18813;BME280;9534;51.140;6.296;2024-02-26T21:32:21;67368.00;;;5.95;100.00
18813;BME280;9534;51.140;6.296;2024-02-26T21:36:25;67367.03;;;5.97;100.00
18813;BME280;9534;51.140;6.296;2024-02-26T21:40:28;67362.63;;;5.95;100.00
18813;BME280;9534;51.140;6.296;2024-02-26T21:44:31;67367.44;;;5.95;100.00
18813;BME280;9534;51.140;6.296;2024-02-26T21:48:34;67365.72;;;5.93;100.00